sensor_id;sensor_type;location;lat;lon;timestamp;temperature;humidity
18654;DHT22;9456;47.824;16.228;2023-07-31T00:00:49;18.60;99.90
18654;DHT22;9456;47.824;16.228;2023-07-31T00:03:18;18.60;99.90
18654;DHT22;9456;47.824;16.228;2023-07-31T00:05:47;18.50;99.90
18654;DHT22;9456;47.824;16.228;2023-07-31T00:08:16;18.50;99.90
18654;DHT22;9456;47.824;16.228;2023-07-31T00:10:45;18.60;99.90
18654;DHT22;9456;47.824;16.228;2023-07-31T00:13:14;18.50;99.90
18654;DHT22;9456;47.824;16.228;2023-07-31T00:15:43;18.50;99.90
18654;DHT22;9456;47.824;16.228;2023-07-31T00:18:12;18.50;99.90
18654;DHT22;9456;47.824;16.228;2023-07-31T00:20:41;18.50;99.90
18654;DHT22;9456;47.824;16.228;2023-07-31T00:23:10;18.50;99.90
18654;DHT22;9456;47.824;16.228;2023-07-31T00:25:39;18.50;99.90
18654;DHT22;9456;47.824;16.228;2023-07-31T00:28:08;18.50;99.90
18654;DHT22;9456;47.824;16.228;2023-07-31T00:30:37;18.40;99.90
18654;DHT22;9456;47.824;16.228;2023-07-31T00:33:05;18.40;99.90
18654;DHT22;9456;47.824;16.228;2023-07-31T00:35:34;18.40;99.90
18654;DHT22;9456;47.824;16.228;2023-07-31T00:38:03;18.30;99.90
18654;DHT22;9456;47.824;16.228;2023-07-31T00:40:36;18.30;99.90
18654;DHT22;9456;47.824;16.228;2023-07-31T00:43:05;18.20;99.90
18654;DHT22;9456;47.824;16.228;2023-07-31T00:45:35;18.20;99.90
18654;DHT22;9456;47.824;16.228;2023-07-31T00:48:04;18.20;99.90
18654;DHT22;9456;47.824;16.228;2023-07-31T00:50:34;18.20;99.90
18654;DHT22;9456;47.824;16.228;2023-07-31T00:53:03;18.20;99.90
18654;DHT22;9456;47.824;16.228;2023-07-31T00:55:32;18.10;99.90
18654;DHT22;9456;47.824;16.228;2023-07-31T00:58:01;18.10;99.90
18654;DHT22;9456;47.824;16.228;2023-07-31T01:00:30;18.10;99.90
18654;DHT22;9456;47.824;16.228;2023-07-31T01:03:01;18.00;99.90
18654;DHT22;9456;47.824;16.228;2023-07-31T01:05:33;18.00;99.90
18654;DHT22;9456;47.824;16.228;2023-07-31T01:08:08;18.00;99.90
18654;DHT22;9456;47.824;16.228;2023-07-31T01:10:40;17.90;99.90
18654;DHT22;9456;47.824;16.228;2023-07-31T01:13:07;17.90;99.90
18654;DHT22;9456;47.824;16.228;2023-07-31T01:15:36;17.90;99.90
18654;DHT22;9456;47.824;16.228;2023-07-31T01:18:13;17.80;99.90
18654;DHT22;9456;47.824;16.228;2023-07-31T01:20:42;17.80;99.90
18654;DHT22;9456;47.824;16.228;2023-07-31T01:23:34;17.80;99.90
18654;DHT22;9456;47.824;16.228;2023-07-31T01:26:04;17.80;99.90
18654;DHT22;9456;47.824;16.228;2023-07-31T01:28:39;17.80;99.90
18654;DHT22;9456;47.824;16.228;2023-07-31T01:31:03;17.80;99.90
18654;DHT22;9456;47.824;16.228;2023-07-31T01:33:32;17.70;99.90
18654;DHT22;9456;47.824;16.228;2023-07-31T01:36:01;17.80;99.90
18654;DHT22;9456;47.824;16.228;2023-07-31T01:38:30;17.70;99.90
18654;DHT22;9456;47.824;16.228;2023-07-31T01:40:58;17.70;99.90
18654;DHT22;9456;47.824;16.228;2023-07-31T01:43:27;17.70;99.90
18654;DHT22;9456;47.824;16.228;2023-07-31T01:45:56;17.70;99.90
18654;DHT22;9456;47.824;16.228;2023-07-31T01:48:25;17.70;99.90
18654;DHT22;9456;47.824;16.228;2023-07-31T01:50:54;17.70;99.90
18654;DHT22;9456;47.824;16.228;2023-07-31T01:53:23;17.60;99.90
18654;DHT22;9456;47.824;16.228;2023-07-31T01:55:52;17.60;99.90
18654;DHT22;9456;47.824;16.228;2023-07-31T01:58:21;17.60;99.90
18654;DHT22;9456;47.824;16.228;2023-07-31T02:00:50;17.50;99.90
18654;DHT22;9456;47.824;16.228;2023-07-31T02:03:19;17.50;99.90
18654;DHT22;9456;47.824;16.228;2023-07-31T02:05:48;17.50;99.90
18654;DHT22;9456;47.824;16.228;2023-07-31T02:08:17;17.50;99.90
18654;DHT22;9456;47.824;16.228;2023-07-31T02:10:46;17.50;99.90
18654;DHT22;9456;47.824;16.228;2023-07-31T02:13:14;17.50;99.90
18654;DHT22;9456;47.824;16.228;2023-07-31T02:15:44;17.50;99.90
18654;DHT22;9456;47.824;16.228;2023-07-31T02:18:13;17.50;99.90
18654;DHT22;9456;47.824;16.228;2023-07-31T02:20:42;17.40;99.90
18654;DHT22;9456;47.824;16.228;2023-07-31T02:23:11;17.40;99.90
18654;DHT22;9456;47.824;16.228;2023-07-31T02:25:40;17.40;99.90
18654;DHT22;9456;47.824;16.228;2023-07-31T02:28:08;17.40;99.90
18654;DHT22;9456;47.824;16.228;2023-07-31T02:30:37;17.40;99.90
18654;DHT22;9456;47.824;16.228;2023-07-31T02:33:07;17.40;99.90
18654;DHT22;9456;47.824;16.228;2023-07-31T02:35:35;17.30;99.90
18654;DHT22;9456;47.824;16.228;2023-07-31T02:38:16;17.30;99.90
18654;DHT22;9456;47.824;16.228;2023-07-31T02:40:46;17.30;99.90
18654;DHT22;9456;47.824;16.228;2023-07-31T02:43:14;17.20;99.90
18654;DHT22;9456;47.824;16.228;2023-07-31T02:45:43;17.10;99.90
18654;DHT22;9456;47.824;16.228;2023-07-31T02:48:12;17.10;99.90
18654;DHT22;9456;47.824;16.228;2023-07-31T02:50:41;17.00;99.90
18654;DHT22;9456;47.824;16.228;2023-07-31T02:53:10;17.00;99.90
18654;DHT22;9456;47.824;16.228;2023-07-31T02:55:39;16.90;99.90
18654;DHT22;9456;47.824;16.228;2023-07-31T02:58:08;16.90;99.90
18654;DHT22;9456;47.824;16.228;2023-07-31T03:00:40;16.80;99.90
18654;DHT22;9456;47.824;16.228;2023-07-31T03:03:06;16.80;99.90
18654;DHT22;9456;47.824;16.228;2023-07-31T03:05:35;16.80;99.90
18654;DHT22;9456;47.824;16.228;2023-07-31T03:08:04;16.80;99.90
18654;DHT22;9456;47.824;16.228;2023-07-31T03:10:33;16.70;99.90
18654;DHT22;9456;47.824;16.228;2023-07-31T03:13:02;16.70;99.90
18654;DHT22;9456;47.824;16.228;2023-07-31T03:15:31;16.60;99.90
18654;DHT22;9456;47.824;16.228;2023-07-31T04:13:45;16.30;99.90
18654;DHT22;9456;47.824;16.228;2023-07-31T04:16:14;16.40;99.90
18654;DHT22;9456;47.824;16.228;2023-07-31T04:18:43;16.40;99.90
18654;DHT22;9456;47.824;16.228;2023-07-31T04:21:12;16.50;99.90
18654;DHT22;9456;47.824;16.228;2023-07-31T04:23:41;16.60;99.90
18654;DHT22;9456;47.824;16.228;2023-07-31T04:26:10;16.70;99.90
18654;DHT22;9456;47.824;16.228;2023-07-31T04:28:39;17.00;99.90
18654;DHT22;9456;47.824;16.228;2023-07-31T04:31:08;17.30;99.90
18654;DHT22;9456;47.824;16.228;2023-07-31T04:33:39;17.60;99.90
18654;DHT22;9456;47.824;16.228;2023-07-31T04:36:07;17.90;99.90
18654;DHT22;9456;47.824;16.228;2023-07-31T04:38:36;18.10;99.90
18654;DHT22;9456;47.824;16.228;2023-07-31T04:41:05;18.30;99.90
18654;DHT22;9456;47.824;16.228;2023-07-31T04:43:34;18.40;99.90
18654;DHT22;9456;47.824;16.228;2023-07-31T04:46:03;18.50;99.90
18654;DHT22;9456;47.824;16.228;2023-07-31T04:48:32;18.70;99.90
18654;DHT22;9456;47.824;16.228;2023-07-31T04:51:01;18.90;99.90
18654;DHT22;9456;47.824;16.228;2023-07-31T04:53:30;19.10;99.90
18654;DHT22;9456;47.824;16.228;2023-07-31T04:55:59;19.40;99.90
18654;DHT22;9456;47.824;16.228;2023-07-31T04:58:29;19.80;99.90
18654;DHT22;9456;47.824;16.228;2023-07-31T05:00:57;20.00;99.90
18654;DHT22;9456;47.824;16.228;2023-07-31T05:03:26;20.30;99.90
18654;DHT22;9456;47.824;16.228;2023-07-31T05:05:55;20.60;99.90
18654;DHT22;9456;47.824;16.228;2023-07-31T05:08:24;20.80;99.90
18654;DHT22;9456;47.824;16.228;2023-07-31T05:10:53;21.20;99.90
18654;DHT22;9456;47.824;16.228;2023-07-31T05:13:22;21.40;99.90
18654;DHT22;9456;47.824;16.228;2023-07-31T05:18:31;21.80;99.90
18654;DHT22;9456;47.824;16.228;2023-07-31T05:21:00;22.00;99.90
18654;DHT22;9456;47.824;16.228;2023-07-31T05:23:29;22.30;99.90
18654;DHT22;9456;47.824;16.228;2023-07-31T05:26:03;22.50;99.90
18654;DHT22;9456;47.824;16.228;2023-07-31T05:28:33;22.70;99.90
18654;DHT22;9456;47.824;16.228;2023-07-31T05:31:01;22.80;99.90
18654;DHT22;9456;47.824;16.228;2023-07-31T05:33:30;22.80;99.90
18654;DHT22;9456;47.824;16.228;2023-07-31T05:35:59;22.80;99.90
18654;DHT22;9456;47.824;16.228;2023-07-31T05:38:28;22.80;99.90
18654;DHT22;9456;47.824;16.228;2023-07-31T05:40:57;22.70;99.90
18654;DHT22;9456;47.824;16.228;2023-07-31T05:43:26;22.60;99.90
18654;DHT22;9456;47.824;16.228;2023-07-31T05:45:55;22.40;99.90
18654;DHT22;9456;47.824;16.228;2023-07-31T05:48:24;22.40;99.90
18654;DHT22;9456;47.824;16.228;2023-07-31T05:50:52;22.30;99.90
18654;DHT22;9456;47.824;16.228;2023-07-31T05:53:21;22.40;99.90
18654;DHT22;9456;47.824;16.228;2023-07-31T05:55:50;22.50;99.90
18654;DHT22;9456;47.824;16.228;2023-07-31T05:58:19;22.60;99.90
18654;DHT22;9456;47.824;16.228;2023-07-31T06:00:48;22.70;99.90
18654;DHT22;9456;47.824;16.228;2023-07-31T06:03:17;22.80;99.90
18654;DHT22;9456;47.824;16.228;2023-07-31T06:05:46;22.80;99.90
18654;DHT22;9456;47.824;16.228;2023-07-31T06:08:15;23.00;99.90
18654;DHT22;9456;47.824;16.228;2023-07-31T06:10:44;23.30;99.90
18654;DHT22;9456;47.824;16.228;2023-07-31T06:13:13;23.60;99.90
18654;DHT22;9456;47.824;16.228;2023-07-31T06:15:42;24.00;99.90
18654;DHT22;9456;47.824;16.228;2023-07-31T06:18:14;24.60;99.90
18654;DHT22;9456;47.824;16.228;2023-07-31T06:20:43;25.00;99.90
18654;DHT22;9456;47.824;16.228;2023-07-31T06:23:12;25.50;99.90
18654;DHT22;9456;47.824;16.228;2023-07-31T06:25:41;26.00;99.00
18654;DHT22;9456;47.824;16.228;2023-07-31T06:28:10;26.30;97.30
18654;DHT22;9456;47.824;16.228;2023-07-31T06:30:39;26.40;96.60
18654;DHT22;9456;47.824;16.228;2023-07-31T06:33:08;26.50;94.80
18654;DHT22;9456;47.824;16.228;2023-07-31T06:35:37;26.80;90.90
18654;DHT22;9456;47.824;16.228;2023-07-31T06:38:06;26.90;93.30
18654;DHT22;9456;47.824;16.228;2023-07-31T06:40:35;27.10;91.70
18654;DHT22;9456;47.824;16.228;2023-07-31T06:43:04;27.30;90.00
18654;DHT22;9456;47.824;16.228;2023-07-31T06:45:33;27.40;83.00
18654;DHT22;9456;47.824;16.228;2023-07-31T06:48:02;27.60;81.20
18654;DHT22;9456;47.824;16.228;2023-07-31T06:50:30;27.70;76.20
18654;DHT22;9456;47.824;16.228;2023-07-31T06:52:59;28.00;78.00
18654;DHT22;9456;47.824;16.228;2023-07-31T06:55:28;28.30;72.30
18654;DHT22;9456;47.824;16.228;2023-07-31T06:58:04;28.70;71.00
18654;DHT22;9456;47.824;16.228;2023-07-31T07:00:40;28.80;69.70
18654;DHT22;9456;47.824;16.228;2023-07-31T07:03:11;29.00;68.30
18654;DHT22;9456;47.824;16.228;2023-07-31T07:05:41;29.20;64.40
18654;DHT22;9456;47.824;16.228;2023-07-31T07:08:10;29.40;65.40
18654;DHT22;9456;47.824;16.228;2023-07-31T07:10:39;29.60;63.80
18654;DHT22;9456;47.824;16.228;2023-07-31T07:13:08;29.80;62.50
18654;DHT22;9456;47.824;16.228;2023-07-31T07:15:37;29.90;61.50
18654;DHT22;9456;47.824;16.228;2023-07-31T07:18:06;30.00;62.40
18654;DHT22;9456;47.824;16.228;2023-07-31T07:20:36;30.10;58.60
18654;DHT22;9456;47.824;16.228;2023-07-31T07:23:05;30.00;59.60
18654;DHT22;9456;47.824;16.228;2023-07-31T07:25:35;30.10;58.50
18654;DHT22;9456;47.824;16.228;2023-07-31T07:28:03;30.50;56.70
18654;DHT22;9456;47.824;16.228;2023-07-31T07:30:32;30.60;57.80
18654;DHT22;9456;47.824;16.228;2023-07-31T07:33:00;30.60;56.10
18654;DHT22;9456;47.824;16.228;2023-07-31T07:35:29;30.60;56.70
18654;DHT22;9456;47.824;16.228;2023-07-31T07:37:58;30.80;55.70
18654;DHT22;9456;47.824;16.228;2023-07-31T07:40:27;31.00;54.10
18654;DHT22;9456;47.824;16.228;2023-07-31T07:42:56;31.00;52.70
18654;DHT22;9456;47.824;16.228;2023-07-31T07:45:25;30.90;52.20
18654;DHT22;9456;47.824;16.228;2023-07-31T07:47:54;30.60;55.30
18654;DHT22;9456;47.824;16.228;2023-07-31T07:50:23;30.60;53.20
18654;DHT22;9456;47.824;16.228;2023-07-31T07:52:52;30.50;53.50
18654;DHT22;9456;47.824;16.228;2023-07-31T07:55:21;30.50;52.70
18654;DHT22;9456;47.824;16.228;2023-07-31T07:57:50;30.60;53.70
18654;DHT22;9456;47.824;16.228;2023-07-31T08:00:19;30.60;53.30
18654;DHT22;9456;47.824;16.228;2023-07-31T08:02:48;30.80;52.60
18654;DHT22;9456;47.824;16.228;2023-07-31T08:05:17;30.80;53.60
18654;DHT22;9456;47.824;16.228;2023-07-31T08:07:46;30.80;53.10
18654;DHT22;9456;47.824;16.228;2023-07-31T08:10:15;30.60;52.20
18654;DHT22;9456;47.824;16.228;2023-07-31T08:12:44;30.60;52.70
18654;DHT22;9456;47.824;16.228;2023-07-31T08:15:13;30.60;52.00
18654;DHT22;9456;47.824;16.228;2023-07-31T08:17:42;30.50;51.70
18654;DHT22;9456;47.824;16.228;2023-07-31T08:20:13;30.60;51.50
18654;DHT22;9456;47.824;16.228;2023-07-31T08:22:43;30.60;51.10
18654;DHT22;9456;47.824;16.228;2023-07-31T08:25:12;30.60;51.60
18654;DHT22;9456;47.824;16.228;2023-07-31T08:27:43;30.60;51.90
18654;DHT22;9456;47.824;16.228;2023-07-31T08:30:12;30.60;51.70
18654;DHT22;9456;47.824;16.228;2023-07-31T08:32:41;30.60;51.10
18654;DHT22;9456;47.824;16.228;2023-07-31T08:35:11;30.60;51.90
18654;DHT22;9456;47.824;16.228;2023-07-31T08:37:40;30.60;51.60
18654;DHT22;9456;47.824;16.228;2023-07-31T08:40:18;30.60;51.60
18654;DHT22;9456;47.824;16.228;2023-07-31T08:42:48;30.60;50.70
18654;DHT22;9456;47.824;16.228;2023-07-31T08:45:17;30.50;50.10
18654;DHT22;9456;47.824;16.228;2023-07-31T08:47:47;30.60;51.20
18654;DHT22;9456;47.824;16.228;2023-07-31T08:50:15;30.60;49.80
18654;DHT22;9456;47.824;16.228;2023-07-31T08:52:44;30.70;49.60
18654;DHT22;9456;47.824;16.228;2023-07-31T08:55:13;30.60;50.10
18654;DHT22;9456;47.824;16.228;2023-07-31T08:57:42;30.60;49.30
18654;DHT22;9456;47.824;16.228;2023-07-31T09:00:12;30.60;49.70
18654;DHT22;9456;47.824;16.228;2023-07-31T09:02:52;30.60;49.00
18654;DHT22;9456;47.824;16.228;2023-07-31T09:08:50;30.80;50.00
18654;DHT22;9456;47.824;16.228;2023-07-31T09:11:18;31.00;49.30
18654;DHT22;9456;47.824;16.228;2023-07-31T09:13:48;31.10;48.40
18654;DHT22;9456;47.824;16.228;2023-07-31T09:16:17;31.20;48.60
18654;DHT22;9456;47.824;16.228;2023-07-31T09:18:54;31.20;48.30
18654;DHT22;9456;47.824;16.228;2023-07-31T09:21:23;31.20;49.10
18654;DHT22;9456;47.824;16.228;2023-07-31T09:24:00;31.30;49.70
18654;DHT22;9456;47.824;16.228;2023-07-31T09:26:33;31.50;49.10
18654;DHT22;9456;47.824;16.228;2023-07-31T09:29:01;31.70;47.50
18654;DHT22;9456;47.824;16.228;2023-07-31T09:31:42;31.70;47.60
18654;DHT22;9456;47.824;16.228;2023-07-31T09:34:11;31.90;48.00
18654;DHT22;9456;47.824;16.228;2023-07-31T09:36:42;32.00;48.10
18654;DHT22;9456;47.824;16.228;2023-07-31T09:39:11;32.10;46.10
18654;DHT22;9456;47.824;16.228;2023-07-31T09:41:41;32.10;47.00
18654;DHT22;9456;47.824;16.228;2023-07-31T09:44:09;32.10;47.00
18654;DHT22;9456;47.824;16.228;2023-07-31T09:46:38;32.10;47.00
18654;DHT22;9456;47.824;16.228;2023-07-31T09:49:08;32.00;45.20
18654;DHT22;9456;47.824;16.228;2023-07-31T09:51:38;31.80;47.70
18654;DHT22;9456;47.824;16.228;2023-07-31T09:54:14;31.80;46.30
18654;DHT22;9456;47.824;16.228;2023-07-31T09:56:44;31.80;45.00
18654;DHT22;9456;47.824;16.228;2023-07-31T09:59:13;31.80;46.80
18654;DHT22;9456;47.824;16.228;2023-07-31T10:01:42;31.80;44.80
18654;DHT22;9456;47.824;16.228;2023-07-31T10:04:11;31.80;43.80
18654;DHT22;9456;47.824;16.228;2023-07-31T10:06:40;31.70;44.60
18654;DHT22;9456;47.824;16.228;2023-07-31T10:09:09;31.80;44.00
18654;DHT22;9456;47.824;16.228;2023-07-31T10:11:38;31.90;44.90
18654;DHT22;9456;47.824;16.228;2023-07-31T10:14:07;31.90;43.00
18654;DHT22;9456;47.824;16.228;2023-07-31T10:16:37;31.80;43.60
18654;DHT22;9456;47.824;16.228;2023-07-31T10:19:05;31.80;45.00
18654;DHT22;9456;47.824;16.228;2023-07-31T10:21:35;31.80;44.00
18654;DHT22;9456;47.824;16.228;2023-07-31T10:24:05;31.70;43.10
18654;DHT22;9456;47.824;16.228;2023-07-31T10:26:34;31.60;43.00
18654;DHT22;9456;47.824;16.228;2023-07-31T10:29:03;31.60;44.20
18654;DHT22;9456;47.824;16.228;2023-07-31T10:31:32;31.60;43.50
18654;DHT22;9456;47.824;16.228;2023-07-31T10:34:01;31.60;44.00
18654;DHT22;9456;47.824;16.228;2023-07-31T10:36:30;31.70;45.30
18654;DHT22;9456;47.824;16.228;2023-07-31T10:38:59;31.80;42.90
18654;DHT22;9456;47.824;16.228;2023-07-31T10:41:31;31.90;45.00
18654;DHT22;9456;47.824;16.228;2023-07-31T10:44:00;32.10;43.50
18654;DHT22;9456;47.824;16.228;2023-07-31T10:46:29;32.10;44.70
18654;DHT22;9456;47.824;16.228;2023-07-31T10:49:03;32.10;45.80
18654;DHT22;9456;47.824;16.228;2023-07-31T10:51:37;32.00;43.30
18654;DHT22;9456;47.824;16.228;2023-07-31T10:54:12;31.90;41.80
18654;DHT22;9456;47.824;16.228;2023-07-31T10:56:41;31.60;42.50
18654;DHT22;9456;47.824;16.228;2023-07-31T10:59:10;31.20;43.00
18654;DHT22;9456;47.824;16.228;2023-07-31T11:01:52;30.90;44.10
18654;DHT22;9456;47.824;16.228;2023-07-31T11:04:24;30.70;44.50
18654;DHT22;9456;47.824;16.228;2023-07-31T11:06:59;30.50;45.20
18654;DHT22;9456;47.824;16.228;2023-07-31T11:09:30;30.40;44.50
18654;DHT22;9456;47.824;16.228;2023-07-31T11:11:58;30.30;45.40
18654;DHT22;9456;47.824;16.228;2023-07-31T11:14:27;30.40;46.20
18654;DHT22;9456;47.824;16.228;2023-07-31T11:16:56;30.40;44.50
18654;DHT22;9456;47.824;16.228;2023-07-31T11:19:26;30.30;44.30
18654;DHT22;9456;47.824;16.228;2023-07-31T11:21:55;30.30;45.40
18654;DHT22;9456;47.824;16.228;2023-07-31T11:24:24;30.30;44.90
18654;DHT22;9456;47.824;16.228;2023-07-31T11:26:53;30.30;44.90
18654;DHT22;9456;47.824;16.228;2023-07-31T11:29:29;30.30;44.90
18654;DHT22;9456;47.824;16.228;2023-07-31T11:31:58;30.30;44.10
18654;DHT22;9456;47.824;16.228;2023-07-31T11:34:27;30.10;45.10
18654;DHT22;9456;47.824;16.228;2023-07-31T11:36:55;30.00;44.20
18654;DHT22;9456;47.824;16.228;2023-07-31T11:39:24;29.80;44.30
18654;DHT22;9456;47.824;16.228;2023-07-31T11:41:54;29.60;45.30
18654;DHT22;9456;47.824;16.228;2023-07-31T11:44:23;29.50;45.90
18654;DHT22;9456;47.824;16.228;2023-07-31T11:46:52;29.40;46.30
18654;DHT22;9456;47.824;16.228;2023-07-31T11:49:20;29.20;45.70
18654;DHT22;9456;47.824;16.228;2023-07-31T11:51:49;29.00;47.30
18654;DHT22;9456;47.824;16.228;2023-07-31T11:54:18;28.90;47.40
18654;DHT22;9456;47.824;16.228;2023-07-31T11:56:47;28.80;47.70
18654;DHT22;9456;47.824;16.228;2023-07-31T11:59:16;28.80;48.70
18654;DHT22;9456;47.824;16.228;2023-07-31T12:01:45;28.90;49.10
18654;DHT22;9456;47.824;16.228;2023-07-31T12:04:14;29.00;49.10
18654;DHT22;9456;47.824;16.228;2023-07-31T12:06:43;29.10;47.70
18654;DHT22;9456;47.824;16.228;2023-07-31T12:09:12;29.10;48.10
18654;DHT22;9456;47.824;16.228;2023-07-31T12:11:47;29.10;47.40
18654;DHT22;9456;47.824;16.228;2023-07-31T12:14:28;28.90;46.60
18654;DHT22;9456;47.824;16.228;2023-07-31T12:19:54;28.60;48.90
18654;DHT22;9456;47.824;16.228;2023-07-31T12:22:23;28.50;49.40
18654;DHT22;9456;47.824;16.228;2023-07-31T12:24:52;28.50;49.40
18654;DHT22;9456;47.824;16.228;2023-07-31T12:27:21;28.70;49.30
18654;DHT22;9456;47.824;16.228;2023-07-31T12:29:50;28.80;48.90
18654;DHT22;9456;47.824;16.228;2023-07-31T12:32:23;28.90;49.50
18654;DHT22;9456;47.824;16.228;2023-07-31T12:34:51;29.00;48.40
18654;DHT22;9456;47.824;16.228;2023-07-31T12:37:21;28.90;48.40
18654;DHT22;9456;47.824;16.228;2023-07-31T12:39:50;29.00;48.10
18654;DHT22;9456;47.824;16.228;2023-07-31T12:42:19;29.00;48.10
18654;DHT22;9456;47.824;16.228;2023-07-31T12:44:48;28.90;48.80
18654;DHT22;9456;47.824;16.228;2023-07-31T12:47:17;28.80;47.10
18654;DHT22;9456;47.824;16.228;2023-07-31T12:49:46;28.70;47.40
18654;DHT22;9456;47.824;16.228;2023-07-31T12:52:14;28.50;47.80
18654;DHT22;9456;47.824;16.228;2023-07-31T12:54:43;28.40;47.50
18654;DHT22;9456;47.824;16.228;2023-07-31T12:57:12;28.40;48.10
18654;DHT22;9456;47.824;16.228;2023-07-31T12:59:41;28.40;48.10
18654;DHT22;9456;47.824;16.228;2023-07-31T13:02:10;28.40;48.30
18654;DHT22;9456;47.824;16.228;2023-07-31T13:04:39;28.40;47.90
18654;DHT22;9456;47.824;16.228;2023-07-31T13:07:08;28.40;47.90
18654;DHT22;9456;47.824;16.228;2023-07-31T13:09:37;28.40;47.80
18654;DHT22;9456;47.824;16.228;2023-07-31T13:12:07;28.40;48.30
18654;DHT22;9456;47.824;16.228;2023-07-31T13:14:36;28.30;48.80
18654;DHT22;9456;47.824;16.228;2023-07-31T13:17:05;28.30;49.10
18654;DHT22;9456;47.824;16.228;2023-07-31T13:19:34;28.30;48.50
18654;DHT22;9456;47.824;16.228;2023-07-31T13:22:04;28.40;48.80
18654;DHT22;9456;47.824;16.228;2023-07-31T13:24:33;28.40;48.80
18654;DHT22;9456;47.824;16.228;2023-07-31T13:27:02;28.40;49.30
18654;DHT22;9456;47.824;16.228;2023-07-31T13:29:39;28.50;48.00
18654;DHT22;9456;47.824;16.228;2023-07-31T13:32:08;28.40;48.40
18654;DHT22;9456;47.824;16.228;2023-07-31T13:34:45;28.30;49.10
18654;DHT22;9456;47.824;16.228;2023-07-31T13:37:13;28.10;50.80
18654;DHT22;9456;47.824;16.228;2023-07-31T13:39:43;28.00;50.00
18654;DHT22;9456;47.824;16.228;2023-07-31T13:42:11;27.90;50.00
18654;DHT22;9456;47.824;16.228;2023-07-31T13:44:40;27.80;50.70
18654;DHT22;9456;47.824;16.228;2023-07-31T13:47:09;27.90;51.40
18654;DHT22;9456;47.824;16.228;2023-07-31T13:49:38;27.80;50.30
18654;DHT22;9456;47.824;16.228;2023-07-31T13:52:08;27.80;50.40
18654;DHT22;9456;47.824;16.228;2023-07-31T13:54:37;27.80;50.80
18654;DHT22;9456;47.824;16.228;2023-07-31T13:57:06;27.90;51.80
18654;DHT22;9456;47.824;16.228;2023-07-31T13:59:35;27.80;52.70
18654;DHT22;9456;47.824;16.228;2023-07-31T14:02:05;27.90;52.40
18654;DHT22;9456;47.824;16.228;2023-07-31T14:04:34;27.90;52.10
18654;DHT22;9456;47.824;16.228;2023-07-31T14:07:03;27.90;52.40
18654;DHT22;9456;47.824;16.228;2023-07-31T14:09:32;27.90;53.20
18654;DHT22;9456;47.824;16.228;2023-07-31T14:12:01;27.90;53.10
18654;DHT22;9456;47.824;16.228;2023-07-31T14:14:30;27.90;52.60
18654;DHT22;9456;47.824;16.228;2023-07-31T14:16:58;27.70;51.50
18654;DHT22;9456;47.824;16.228;2023-07-31T14:19:27;27.60;51.90
18654;DHT22;9456;47.824;16.228;2023-07-31T14:21:57;27.50;52.50
18654;DHT22;9456;47.824;16.228;2023-07-31T14:24:26;27.50;52.40
18654;DHT22;9456;47.824;16.228;2023-07-31T14:26:55;27.40;55.10
18654;DHT22;9456;47.824;16.228;2023-07-31T14:29:24;27.20;55.40
18654;DHT22;9456;47.824;16.228;2023-07-31T14:31:53;27.20;55.90
18654;DHT22;9456;47.824;16.228;2023-07-31T14:34:22;27.20;55.80
18654;DHT22;9456;47.824;16.228;2023-07-31T14:36:54;27.10;56.00
18654;DHT22;9456;47.824;16.228;2023-07-31T14:39:23;27.00;54.60
18654;DHT22;9456;47.824;16.228;2023-07-31T14:41:52;26.90;57.30
18654;DHT22;9456;47.824;16.228;2023-07-31T14:44:21;26.90;58.00
18654;DHT22;9456;47.824;16.228;2023-07-31T14:46:50;26.90;59.40
18654;DHT22;9456;47.824;16.228;2023-07-31T14:49:19;27.00;60.40
18654;DHT22;9456;47.824;16.228;2023-07-31T14:51:47;27.00;60.30
18654;DHT22;9456;47.824;16.228;2023-07-31T14:54:16;26.90;60.60
18654;DHT22;9456;47.824;16.228;2023-07-31T14:56:45;26.90;62.50
18654;DHT22;9456;47.824;16.228;2023-07-31T14:59:14;26.90;62.10
18654;DHT22;9456;47.824;16.228;2023-07-31T15:01:43;26.70;61.50
18654;DHT22;9456;47.824;16.228;2023-07-31T15:04:12;26.60;63.10
18654;DHT22;9456;47.824;16.228;2023-07-31T15:06:41;26.50;64.50
18654;DHT22;9456;47.824;16.228;2023-07-31T15:09:10;26.40;65.70
18654;DHT22;9456;47.824;16.228;2023-07-31T15:11:39;26.40;67.20
18654;DHT22;9456;47.824;16.228;2023-07-31T15:14:08;26.40;66.90
18654;DHT22;9456;47.824;16.228;2023-07-31T15:16:37;26.40;67.70
18654;DHT22;9456;47.824;16.228;2023-07-31T15:19:06;26.30;68.10
18654;DHT22;9456;47.824;16.228;2023-07-31T15:21:35;26.20;69.30
18654;DHT22;9456;47.824;16.228;2023-07-31T15:24:04;26.20;70.40
18654;DHT22;9456;47.824;16.228;2023-07-31T15:26:32;26.10;71.50
18654;DHT22;9456;47.824;16.228;2023-07-31T15:29:03;26.10;72.30
18654;DHT22;9456;47.824;16.228;2023-07-31T15:31:37;26.10;73.10
18654;DHT22;9456;47.824;16.228;2023-07-31T15:34:06;26.10;74.50
18654;DHT22;9456;47.824;16.228;2023-07-31T15:36:35;26.10;74.90
18654;DHT22;9456;47.824;16.228;2023-07-31T15:39:05;26.10;76.10
18654;DHT22;9456;47.824;16.228;2023-07-31T15:41:34;26.10;75.70
18654;DHT22;9456;47.824;16.228;2023-07-31T15:44:03;26.10;76.40
18654;DHT22;9456;47.824;16.228;2023-07-31T15:46:32;26.10;76.50
18654;DHT22;9456;47.824;16.228;2023-07-31T15:49:13;25.90;77.00
18654;DHT22;9456;47.824;16.228;2023-07-31T15:51:45;25.90;78.00
18654;DHT22;9456;47.824;16.228;2023-07-31T15:54:14;25.80;79.10
18654;DHT22;9456;47.824;16.228;2023-07-31T15:56:43;25.80;79.40
18654;DHT22;9456;47.824;16.228;2023-07-31T15:59:12;25.80;79.80
18654;DHT22;9456;47.824;16.228;2023-07-31T16:01:41;25.80;80.10
18654;DHT22;9456;47.824;16.228;2023-07-31T16:04:09;25.90;81.00
18654;DHT22;9456;47.824;16.228;2023-07-31T16:06:38;25.90;81.50
18654;DHT22;9456;47.824;16.228;2023-07-31T16:09:07;25.80;82.20
18654;DHT22;9456;47.824;16.228;2023-07-31T16:11:36;25.80;83.30
18654;DHT22;9456;47.824;16.228;2023-07-31T16:14:05;25.70;85.00
18654;DHT22;9456;47.824;16.228;2023-07-31T16:16:34;25.60;85.90
18654;DHT22;9456;47.824;16.228;2023-07-31T16:19:03;25.50;87.20
18654;DHT22;9456;47.824;16.228;2023-07-31T16:21:32;25.40;88.20
18654;DHT22;9456;47.824;16.228;2023-07-31T16:24:01;25.40;89.90
18654;DHT22;9456;47.824;16.228;2023-07-31T16:26:31;25.30;90.30
18654;DHT22;9456;47.824;16.228;2023-07-31T16:29:00;25.20;90.70
18654;DHT22;9456;47.824;16.228;2023-07-31T16:31:29;25.10;91.10
18654;DHT22;9456;47.824;16.228;2023-07-31T16:33:57;25.10;91.60
18654;DHT22;9456;47.824;16.228;2023-07-31T16:36:26;25.20;92.00
18654;DHT22;9456;47.824;16.228;2023-07-31T16:38:55;25.20;92.40
18654;DHT22;9456;47.824;16.228;2023-07-31T16:41:25;25.20;92.70
18654;DHT22;9456;47.824;16.228;2023-07-31T16:43:54;25.20;93.00
18654;DHT22;9456;47.824;16.228;2023-07-31T16:46:23;25.10;93.60
18654;DHT22;9456;47.824;16.228;2023-07-31T16:48:52;25.10;94.10